Aviation Digital Data Service (ADDS)

Output produced by METARs form (0331 UTC 01 June 2016)
found at http://www.aviationweather.gov/adds/metars/
 
KGED 010254Z AUTO 18004KT 10SM CLR 21/20 A3000 RMK AO2 SLP158 T02110200 51012